UAL1184 KDEN-KOKC
Flight info
| Callsign | UAL1184 |
|---|---|
| Flight time | 1h 2m |
| Altitude | 35000 |
| Route | EPKEE7 DUUZE GCK ROLLS CAMET3 |
| Aircraft | B789/H-SDE1E2E3FGHIJ2J3J4J5M1RWXY/LB1D1 |
Departure
| Time | 2026-04-14 14:31 |
|---|---|
| Airport | Denver International Airport (KDEN) |
Arrival
| Time | 2026-04-14 15:33 |
|---|---|
| Airport | OKC Will Rogers World Airport (KOKC) |
| Time | Latitude | Longitude | Altitude | Speed | Heading |
|---|---|---|---|---|---|
| 2026-04-14 14:04 | 39.85810 | -104.67464 | 5445 ft | 0 kts | 0° |
| 2026-04-14 14:21 | 39.85804 | -104.67464 | 5445 ft | 2 kts | 0° |
| 2026-04-14 14:21 | 39.85787 | -104.67465 | 5445 ft | 3 kts | 0° |
| 2026-04-14 14:21 | 39.85767 | -104.67465 | 5445 ft | 3 kts | 0° |
| 2026-04-14 14:22 | 39.85747 | -104.67465 | 5445 ft | 3 kts | 0° |
| 2026-04-14 14:22 | 39.85727 | -104.67465 | 5445 ft | 3 kts | 0° |
| 2026-04-14 14:22 | 39.85706 | -104.67466 | 5445 ft | 3 kts | 0° |
| 2026-04-14 14:22 | 39.85699 | -104.67466 | 5445 ft | 0 kts | 0° |
| 2026-04-14 14:24 | 39.85702 | -104.67465 | 5445 ft | 1 kts | 13° |
| 2026-04-14 14:24 | 39.85709 | -104.67457 | 5445 ft | 2 kts | 55° |
| 2026-04-14 14:24 | 39.85711 | -104.67417 | 5445 ft | 7 kts | 95° |
| 2026-04-14 14:24 | 39.85698 | -104.67332 | 5445 ft | 12 kts | 101° |
| 2026-04-14 14:25 | 39.85673 | -104.67206 | 5445 ft | 17 kts | 105° |
| 2026-04-14 14:25 | 39.85662 | -104.67040 | 5445 ft | 21 kts | 90° |
| 2026-04-14 14:25 | 39.85659 | -104.66831 | 5445 ft | 25 kts | 91° |
| 2026-04-14 14:25 | 39.85660 | -104.66597 | 5445 ft | 26 kts | 89° |
| 2026-04-14 14:26 | 39.85673 | -104.66361 | 5445 ft | 26 kts | 89° |
| 2026-04-14 14:26 | 39.85710 | -104.66241 | 5445 ft | 10 kts | 11° |
| 2026-04-14 14:26 | 39.85798 | -104.66235 | 5445 ft | 16 kts | 1° |
| 2026-04-14 14:26 | 39.85933 | -104.66233 | 5445 ft | 23 kts | 1° |
| 2026-04-14 14:27 | 39.86104 | -104.66231 | 5445 ft | 26 kts | 360° |
| 2026-04-14 14:27 | 39.86289 | -104.66230 | 5445 ft | 27 kts | 0° |
| 2026-04-14 14:27 | 39.86479 | -104.66227 | 5445 ft | 27 kts | 1° |
| 2026-04-14 14:27 | 39.86670 | -104.66223 | 5445 ft | 27 kts | 1° |
| 2026-04-14 14:28 | 39.86862 | -104.66219 | 5445 ft | 28 kts | 1° |
| 2026-04-14 14:28 | 39.87055 | -104.66216 | 5445 ft | 28 kts | 0° |
| 2026-04-14 14:28 | 39.87248 | -104.66214 | 5445 ft | 28 kts | 0° |
| 2026-04-14 14:28 | 39.87442 | -104.66213 | 5445 ft | 28 kts | 0° |
| 2026-04-14 14:29 | 39.87608 | -104.66210 | 5445 ft | 14 kts | 1° |
| 2026-04-14 14:29 | 39.87715 | -104.66206 | 5445 ft | 16 kts | 1° |
| 2026-04-14 14:29 | 39.87751 | -104.66181 | 5445 ft | 5 kts | 60° |
| 2026-04-14 14:29 | 39.87755 | -104.66145 | 5445 ft | 0 kts | 90° |
| 2026-04-14 14:30 | 39.87755 | -104.66077 | 5445 ft | 33 kts | 90° |
| 2026-04-14 14:30 | 39.87750 | -104.65422 | 5445 ft | 109 kts | 90° |
| 2026-04-14 14:30 | 39.87742 | -104.64165 | 5446 ft | 166 kts | 90° |
| 2026-04-14 14:31 | 39.87731 | -104.62637 | 6089 ft | 164 kts | 90° |
| 2026-04-14 14:31 | 39.87634 | -104.61175 | 6952 ft | 163 kts | 95° |
| 2026-04-14 14:31 | 39.87465 | -104.59703 | 7660 ft | 165 kts | 96° |
| 2026-04-14 14:31 | 39.87375 | -104.58185 | 8220 ft | 174 kts | 91° |
| 2026-04-14 14:32 | 39.87323 | -104.56540 | 8617 ft | 192 kts | 93° |
| 2026-04-14 14:32 | 39.86883 | -104.54809 | 8927 ft | 211 kts | 114° |
| 2026-04-14 14:32 | 39.86178 | -104.53058 | 9331 ft | 230 kts | 116° |
| 2026-04-14 14:32 | 39.85408 | -104.51081 | 9609 ft | 257 kts | 115° |
| 2026-04-14 14:33 | 39.84594 | -104.48924 | 9934 ft | 274 kts | 115° |
| 2026-04-14 14:33 | 39.83738 | -104.46636 | 10436 ft | 291 kts | 115° |
| 2026-04-14 14:33 | 39.82834 | -104.44217 | 10902 ft | 310 kts | 115° |
| 2026-04-14 14:33 | 39.81873 | -104.41643 | 11538 ft | 321 kts | 116° |
| 2026-04-14 14:34 | 39.79869 | -104.36066 | 12199 ft | 354 kts | 114° |
| 2026-04-14 14:34 | 39.78843 | -104.33098 | 12816 ft | 364 kts | 115° |
| 2026-04-14 14:34 | 39.77792 | -104.30061 | 13550 ft | 371 kts | 115° |
| 2026-04-14 14:35 | 39.76726 | -104.26984 | 14353 ft | 375 kts | 116° |
| 2026-04-14 14:35 | 39.75641 | -104.23864 | 15004 ft | 384 kts | 117° |
| 2026-04-14 14:35 | 39.74536 | -104.20702 | 15580 ft | 393 kts | 117° |
| 2026-04-14 14:35 | 39.73378 | -104.17387 | 16250 ft | 401 kts | 118° |
| 2026-04-14 14:36 | 39.72227 | -104.14115 | 16937 ft | 406 kts | 119° |
| 2026-04-14 14:36 | 39.71041 | -104.10755 | 17575 ft | 413 kts | 120° |
| 2026-04-14 14:36 | 39.69831 | -104.07329 | 18225 ft | 419 kts | 120° |
| 2026-04-14 14:36 | 39.68605 | -104.03867 | 18921 ft | 424 kts | 121° |
| 2026-04-14 14:37 | 39.67366 | -104.00379 | 19635 ft | 428 kts | 121° |
| 2026-04-14 14:37 | 39.66077 | -103.96875 | 20283 ft | 431 kts | 123° |
| 2026-04-14 14:37 | 39.64720 | -103.93391 | 20995 ft | 434 kts | 124° |
| 2026-04-14 14:37 | 39.63328 | -103.89896 | 21657 ft | 437 kts | 125° |
| 2026-04-14 14:38 | 39.61903 | -103.86379 | 22290 ft | 442 kts | 125° |
| 2026-04-14 14:38 | 39.60478 | -103.82891 | 22922 ft | 445 kts | 126° |
| 2026-04-14 14:38 | 39.59079 | -103.79227 | 23702 ft | 450 kts | 122° |
| 2026-04-14 14:38 | 39.57917 | -103.75455 | 24212 ft | 460 kts | 118° |
| 2026-04-14 14:39 | 39.56812 | -103.71514 | 24687 ft | 469 kts | 117° |
| 2026-04-14 14:39 | 39.55711 | -103.67502 | 25236 ft | 474 kts | 117° |
| 2026-04-14 14:39 | 39.54597 | -103.63467 | 25855 ft | 477 kts | 118° |
| 2026-04-14 14:39 | 39.53465 | -103.59410 | 26412 ft | 481 kts | 118° |
| 2026-04-14 14:40 | 39.52310 | -103.55314 | 26932 ft | 486 kts | 118° |
| 2026-04-14 14:40 | 39.51138 | -103.51182 | 27407 ft | 491 kts | 118° |
| 2026-04-14 14:40 | 39.49949 | -103.47006 | 27893 ft | 496 kts | 118° |
| 2026-04-14 14:40 | 39.48749 | -103.42793 | 28393 ft | 500 kts | 118° |
| 2026-04-14 14:41 | 39.47537 | -103.38550 | 28882 ft | 504 kts | 118° |
| 2026-04-14 14:41 | 39.46311 | -103.34265 | 29305 ft | 510 kts | 118° |
| 2026-04-14 14:41 | 39.45070 | -103.29936 | 29731 ft | 515 kts | 118° |
| 2026-04-14 14:41 | 39.43835 | -103.25632 | 30162 ft | 519 kts | 118° |
| 2026-04-14 14:42 | 39.42575 | -103.21242 | 30633 ft | 522 kts | 118° |
| 2026-04-14 14:42 | 39.41302 | -103.16817 | 31020 ft | 528 kts | 119° |
| 2026-04-14 14:42 | 39.40011 | -103.12340 | 31382 ft | 533 kts | 119° |
| 2026-04-14 14:42 | 39.38708 | -103.07833 | 31802 ft | 537 kts | 119° |
| 2026-04-14 14:43 | 39.37823 | -103.04771 | 32124 ft | 539 kts | 119° |
| 2026-04-14 14:43 | 39.36030 | -102.98788 | 32753 ft | 538 kts | 122° |
| 2026-04-14 14:43 | 39.34530 | -102.94381 | 33448 ft | 531 kts | 124° |
| 2026-04-14 14:43 | 39.32985 | -102.90074 | 34104 ft | 527 kts | 125° |
| 2026-04-14 14:44 | 39.31390 | -102.85814 | 34550 ft | 526 kts | 126° |
| 2026-04-14 14:44 | 39.29758 | -102.81583 | 34773 ft | 527 kts | 126° |
| 2026-04-14 14:44 | 39.28101 | -102.77352 | 34884 ft | 527 kts | 127° |
| 2026-04-14 14:45 | 39.25335 | -102.70335 | 34899 ft | 528 kts | 127° |
| 2026-04-14 14:45 | 39.22001 | -102.61890 | 34883 ft | 528 kts | 126° |
| 2026-04-14 14:46 | 39.18659 | -102.53438 | 34881 ft | 528 kts | 126° |
| 2026-04-14 14:46 | 39.15314 | -102.44998 | 34888 ft | 528 kts | 126° |
| 2026-04-14 14:47 | 39.11977 | -102.36631 | 34876 ft | 528 kts | 127° |
| 2026-04-14 14:47 | 39.08601 | -102.28214 | 34881 ft | 528 kts | 127° |
| 2026-04-14 14:48 | 39.05225 | -102.19817 | 34879 ft | 529 kts | 127° |
| 2026-04-14 14:48 | 39.01833 | -102.11408 | 34865 ft | 528 kts | 127° |
| 2026-04-14 14:49 | 38.98436 | -102.03007 | 34872 ft | 528 kts | 127° |
| 2026-04-14 14:49 | 38.95036 | -101.94626 | 34867 ft | 528 kts | 126° |
| 2026-04-14 14:50 | 38.91652 | -101.86305 | 34853 ft | 529 kts | 126° |
| 2026-04-14 14:50 | 38.88120 | -101.78026 | 34823 ft | 527 kts | 133° |
| 2026-04-14 14:51 | 38.83480 | -101.70822 | 34874 ft | 520 kts | 141° |
| 2026-04-14 14:51 | 38.78562 | -101.64111 | 34851 ft | 513 kts | 144° |
| 2026-04-14 14:52 | 38.73352 | -101.57924 | 34835 ft | 506 kts | 148° |
| 2026-04-14 14:52 | 38.68002 | -101.52130 | 34848 ft | 501 kts | 150° |
| 2026-04-14 14:53 | 38.62645 | -101.46467 | 34838 ft | 497 kts | 150° |
| 2026-04-14 14:53 | 38.57351 | -101.40871 | 34841 ft | 495 kts | 150° |
| 2026-04-14 14:54 | 38.52039 | -101.35254 | 34845 ft | 495 kts | 150° |
| 2026-04-14 14:54 | 38.46734 | -101.29662 | 34833 ft | 494 kts | 150° |
| 2026-04-14 14:55 | 38.41422 | -101.24073 | 34846 ft | 494 kts | 150° |
| 2026-04-14 14:55 | 38.36117 | -101.18503 | 34849 ft | 494 kts | 150° |
| 2026-04-14 14:56 | 38.28161 | -101.10173 | 34851 ft | 495 kts | 150° |
| 2026-04-14 14:56 | 38.22842 | -101.04615 | 34861 ft | 495 kts | 150° |
| 2026-04-14 14:57 | 38.17500 | -100.99046 | 34843 ft | 495 kts | 150° |
| 2026-04-14 14:57 | 38.12164 | -100.93496 | 34862 ft | 495 kts | 150° |
| 2026-04-14 14:58 | 38.06827 | -100.87956 | 34859 ft | 495 kts | 150° |
| 2026-04-14 14:58 | 38.01493 | -100.82427 | 34856 ft | 495 kts | 150° |
| 2026-04-14 14:59 | 37.96143 | -100.76915 | 34867 ft | 494 kts | 152° |
| 2026-04-14 14:59 | 37.90344 | -100.72277 | 34860 ft | 499 kts | 160° |
| 2026-04-14 15:00 | 37.84180 | -100.68119 | 34870 ft | 502 kts | 163° |
| 2026-04-14 15:00 | 37.77887 | -100.64278 | 34859 ft | 502 kts | 164° |
| 2026-04-14 15:01 | 37.71543 | -100.60544 | 34859 ft | 502 kts | 165° |
| 2026-04-14 15:01 | 37.65202 | -100.56837 | 34875 ft | 501 kts | 165° |
| 2026-04-14 15:02 | 37.58871 | -100.53140 | 34869 ft | 501 kts | 164° |
| 2026-04-14 15:02 | 37.52551 | -100.49441 | 34875 ft | 500 kts | 164° |
| 2026-04-14 15:03 | 37.46264 | -100.45773 | 34885 ft | 500 kts | 165° |
| 2026-04-14 15:03 | 37.39947 | -100.42106 | 34879 ft | 500 kts | 165° |
| 2026-04-14 15:04 | 37.33623 | -100.38443 | 34888 ft | 500 kts | 165° |
| 2026-04-14 15:04 | 37.27294 | -100.34781 | 34896 ft | 500 kts | 165° |
| 2026-04-14 15:05 | 37.20972 | -100.31127 | 34888 ft | 500 kts | 165° |
| 2026-04-14 15:05 | 37.14659 | -100.27481 | 34900 ft | 500 kts | 165° |
| 2026-04-14 15:06 | 37.08337 | -100.23839 | 34903 ft | 500 kts | 165° |
| 2026-04-14 15:06 | 37.02011 | -100.20202 | 34896 ft | 499 kts | 165° |
| 2026-04-14 15:07 | 36.95735 | -100.16601 | 34916 ft | 499 kts | 165° |
| 2026-04-14 15:07 | 36.89423 | -100.12986 | 34927 ft | 499 kts | 165° |
| 2026-04-14 15:08 | 36.83108 | -100.09381 | 34917 ft | 499 kts | 165° |
| 2026-04-14 15:08 | 36.76791 | -100.05780 | 34925 ft | 499 kts | 165° |
| 2026-04-14 15:09 | 36.70464 | -100.02178 | 34931 ft | 499 kts | 165° |
| 2026-04-14 15:09 | 36.64143 | -99.98585 | 34920 ft | 499 kts | 165° |
| 2026-04-14 15:10 | 36.57825 | -99.94993 | 34932 ft | 499 kts | 165° |
| 2026-04-14 15:10 | 36.51541 | -99.91430 | 34930 ft | 499 kts | 165° |
| 2026-04-14 15:11 | 36.45214 | -99.87857 | 34923 ft | 496 kts | 165° |
| 2026-04-14 15:11 | 36.39035 | -99.84359 | 34947 ft | 483 kts | 165° |
| 2026-04-14 15:12 | 36.32953 | -99.80934 | 34933 ft | 477 kts | 165° |
| 2026-04-14 15:12 | 36.26928 | -99.77549 | 34694 ft | 473 kts | 165° |
| 2026-04-14 15:13 | 36.23934 | -99.75865 | 34367 ft | 470 kts | 166° |
| 2026-04-14 15:13 | 36.20958 | -99.74192 | 34066 ft | 468 kts | 166° |
| 2026-04-14 15:13 | 36.18030 | -99.72549 | 33791 ft | 467 kts | 166° |
| 2026-04-14 15:13 | 36.15073 | -99.70894 | 33528 ft | 466 kts | 166° |
| 2026-04-14 15:14 | 36.12123 | -99.69245 | 33275 ft | 465 kts | 166° |
| 2026-04-14 15:14 | 36.09170 | -99.67596 | 33027 ft | 465 kts | 166° |
| 2026-04-14 15:14 | 36.06221 | -99.65950 | 32784 ft | 466 kts | 165° |
| 2026-04-14 15:14 | 36.03265 | -99.64301 | 32542 ft | 466 kts | 165° |
| 2026-04-14 15:15 | 36.00306 | -99.62651 | 32302 ft | 467 kts | 165° |
| 2026-04-14 15:15 | 35.97337 | -99.60997 | 32063 ft | 467 kts | 165° |
| 2026-04-14 15:15 | 35.94376 | -99.59346 | 31824 ft | 466 kts | 165° |
| 2026-04-14 15:15 | 35.91431 | -99.57706 | 31588 ft | 464 kts | 165° |
| 2026-04-14 15:16 | 35.88488 | -99.56066 | 31355 ft | 463 kts | 165° |
| 2026-04-14 15:16 | 35.85561 | -99.54439 | 31125 ft | 461 kts | 165° |
| 2026-04-14 15:16 | 35.82639 | -99.52816 | 30895 ft | 460 kts | 165° |
| 2026-04-14 15:16 | 35.79711 | -99.51191 | 30666 ft | 459 kts | 165° |
| 2026-04-14 15:17 | 35.76901 | -99.49264 | 30388 ft | 465 kts | 154° |
| 2026-04-14 15:17 | 35.74454 | -99.46644 | 30134 ft | 468 kts | 142° |
| 2026-04-14 15:17 | 35.72495 | -99.43473 | 29843 ft | 473 kts | 130° |
| 2026-04-14 15:17 | 35.71059 | -99.39804 | 29502 ft | 479 kts | 117° |
| 2026-04-14 15:18 | 35.70233 | -99.35810 | 29110 ft | 485 kts | 105° |
| 2026-04-14 15:18 | 35.70056 | -99.31660 | 28682 ft | 489 kts | 93° |
| 2026-04-14 15:18 | 35.70347 | -99.27496 | 28209 ft | 493 kts | 89° |
| 2026-04-14 15:18 | 35.70609 | -99.23218 | 27612 ft | 502 kts | 91° |
| 2026-04-14 15:19 | 35.70670 | -99.18912 | 27141 ft | 505 kts | 95° |
| 2026-04-14 15:19 | 35.70558 | -99.14588 | 26652 ft | 505 kts | 97° |
| 2026-04-14 15:19 | 35.70342 | -99.10272 | 26048 ft | 504 kts | 99° |
| 2026-04-14 15:19 | 35.70080 | -99.05985 | 25591 ft | 499 kts | 99° |
| 2026-04-14 15:20 | 35.69808 | -99.01796 | 25093 ft | 496 kts | 99° |
| 2026-04-14 15:20 | 35.69530 | -98.97579 | 24517 ft | 492 kts | 99° |
| 2026-04-14 15:20 | 35.69258 | -98.93414 | 24085 ft | 486 kts | 99° |
| 2026-04-14 15:20 | 35.68990 | -98.89286 | 23533 ft | 483 kts | 99° |
| 2026-04-14 15:21 | 35.68724 | -98.85181 | 23054 ft | 478 kts | 99° |
| 2026-04-14 15:21 | 35.68462 | -98.81122 | 22595 ft | 473 kts | 99° |
| 2026-04-14 15:21 | 35.68200 | -98.77102 | 22051 ft | 470 kts | 99° |
| 2026-04-14 15:21 | 35.67939 | -98.73118 | 21624 ft | 464 kts | 99° |
| 2026-04-14 15:22 | 35.67679 | -98.69163 | 21085 ft | 462 kts | 99° |
| 2026-04-14 15:22 | 35.67420 | -98.65253 | 20649 ft | 456 kts | 99° |
| 2026-04-14 15:22 | 35.67162 | -98.61388 | 20186 ft | 453 kts | 99° |
| 2026-04-14 15:22 | 35.66904 | -98.57534 | 19670 ft | 449 kts | 99° |
| 2026-04-14 15:23 | 35.66734 | -98.55010 | 19422 ft | 445 kts | 99° |
| 2026-04-14 15:23 | 35.66393 | -98.49952 | 18760 ft | 441 kts | 99° |
| 2026-04-14 15:23 | 35.66222 | -98.47469 | 18408 ft | 438 kts | 99° |
| 2026-04-14 15:23 | 35.65882 | -98.42498 | 17585 ft | 433 kts | 99° |
| 2026-04-14 15:24 | 35.65563 | -98.38888 | 17051 ft | 427 kts | 102° |
| 2026-04-14 15:24 | 35.65178 | -98.35291 | 16484 ft | 422 kts | 103° |
| 2026-04-14 15:24 | 35.64768 | -98.31733 | 15913 ft | 418 kts | 103° |
| 2026-04-14 15:24 | 35.64348 | -98.28214 | 15341 ft | 414 kts | 103° |
| 2026-04-14 15:25 | 35.64062 | -98.25854 | 14953 ft | 411 kts | 103° |
| 2026-04-14 15:25 | 35.63640 | -98.22388 | 14385 ft | 408 kts | 103° |
| 2026-04-14 15:25 | 35.63221 | -98.18955 | 13819 ft | 404 kts | 103° |
| 2026-04-14 15:25 | 35.62806 | -98.15546 | 13257 ft | 401 kts | 103° |
| 2026-04-14 15:26 | 35.62399 | -98.12220 | 12700 ft | 397 kts | 103° |
| 2026-04-14 15:26 | 35.61989 | -98.08878 | 12143 ft | 393 kts | 103° |
| 2026-04-14 15:26 | 35.61584 | -98.05575 | 11594 ft | 388 kts | 103° |
| 2026-04-14 15:26 | 35.61181 | -98.02313 | 11055 ft | 384 kts | 103° |
| 2026-04-14 15:27 | 35.60781 | -97.99082 | 10512 ft | 380 kts | 102° |
| 2026-04-14 15:27 | 35.60387 | -97.95901 | 10111 ft | 371 kts | 102° |
| 2026-04-14 15:27 | 35.60008 | -97.92825 | 9908 ft | 358 kts | 102° |
| 2026-04-14 15:27 | 35.59636 | -97.89824 | 9354 ft | 355 kts | 102° |
| 2026-04-14 15:28 | 35.59262 | -97.86848 | 8728 ft | 349 kts | 102° |
| 2026-04-14 15:28 | 35.58896 | -97.83925 | 8146 ft | 342 kts | 101° |
| 2026-04-14 15:28 | 35.58540 | -97.81068 | 7604 ft | 335 kts | 101° |
| 2026-04-14 15:28 | 35.58187 | -97.78262 | 7100 ft | 329 kts | 101° |
| 2026-04-14 15:29 | 35.57841 | -97.75504 | 6606 ft | 323 kts | 101° |
| 2026-04-14 15:29 | 35.57500 | -97.72801 | 6130 ft | 318 kts | 101° |
| 2026-04-14 15:29 | 35.57168 | -97.70171 | 5681 ft | 313 kts | 101° |
| 2026-04-14 15:29 | 35.56838 | -97.67550 | 5286 ft | 306 kts | 102° |
| 2026-04-14 15:30 | 35.56510 | -97.64985 | 5077 ft | 293 kts | 103° |
| 2026-04-14 15:30 | 35.55879 | -97.62718 | 4764 ft | 278 kts | 124° |
| 2026-04-14 15:30 | 35.54550 | -97.61095 | 4509 ft | 266 kts | 152° |
| 2026-04-14 15:30 | 35.52840 | -97.60462 | 4300 ft | 253 kts | 178° |
| 2026-04-14 15:31 | 35.51127 | -97.60480 | 4147 ft | 239 kts | 185° |
| 2026-04-14 15:31 | 35.49537 | -97.60530 | 3897 ft | 217 kts | 185° |
| 2026-04-14 15:31 | 35.48098 | -97.60551 | 3625 ft | 193 kts | 184° |
| 2026-04-14 15:31 | 35.46839 | -97.60561 | 3345 ft | 169 kts | 184° |
| 2026-04-14 15:32 | 35.45723 | -97.60577 | 3100 ft | 151 kts | 184° |
| 2026-04-14 15:32 | 35.44733 | -97.60585 | 2736 ft | 141 kts | 184° |
| 2026-04-14 15:32 | 35.43746 | -97.60607 | 2229 ft | 142 kts | 182° |
| 2026-04-14 15:32 | 35.42767 | -97.60587 | 1894 ft | 137 kts | 179° |
| 2026-04-14 15:33 | 35.41820 | -97.60573 | 1629 ft | 135 kts | 180° |
| 2026-04-14 15:33 | 35.40878 | -97.60569 | 1439 ft | 134 kts | 180° |
| 2026-04-14 15:33 | 35.39963 | -97.60577 | 1309 ft | 121 kts | 180° |
| 2026-04-14 15:33 | 35.39419 | -97.60575 | 1309 ft | 40 kts | 179° |
| 2026-04-14 15:34 | 35.39253 | -97.60553 | 1309 ft | 11 kts | 140° |
| 2026-04-14 15:34 | 35.39235 | -97.60458 | 1309 ft | 14 kts | 92° |
| 2026-04-14 15:34 | 35.39232 | -97.60315 | 1309 ft | 19 kts | 89° |
| 2026-04-14 15:34 | 35.39234 | -97.60133 | 1309 ft | 24 kts | 89° |
| 2026-04-14 15:35 | 35.39237 | -97.59919 | 1309 ft | 25 kts | 89° |
| 2026-04-14 15:35 | 35.39259 | -97.59861 | 1309 ft | 6 kts | 21° |
| 2026-04-14 15:35 | 35.39306 | -97.59817 | 1309 ft | 11 kts | 56° |
| 2026-04-14 15:35 | 35.39331 | -97.59801 | 1309 ft | 7 kts | 359° |
| 2026-04-14 15:36 | 35.39416 | -97.59804 | 1309 ft | 16 kts | 359° |
| 2026-04-14 15:36 | 35.39439 | -97.59805 | 1309 ft | 0 kts | 359° |